Flight Track Log - Related Links

Times and Time Zones

All times are in EDT time to prevent confusion due to time zone crossing. See the N305AT flight status page for this flight to view local times or setup timezone preferences in your user account.

Time Position Orientation Groundspeed Altitude Reporting Facility
EDT Latitude Longitude Course Direction KTS MPH feet Rate Location/Type
Mon 05:02:37 PM 35.0153 -106.6489 285° West 130 150 6,200  Level Albuquerque Center
Mon 05:03:31 PM 35.0206 -106.6917 279° West 137 158 7,000 717 Climbing Albuquerque Center
Mon 05:04:09 PM 35.0256 -106.7167 284° West 136 157 7,300 716 Climbing Albuquerque Center
Mon 05:04:38 PM 35.0292 -106.7411 280° West 142 163 7,800 677 Climbing Albuquerque Center
Mon 05:05:11 PM 35.0350 -106.7639 287° West 139 160 8,000 689 Climbing Albuquerque Center
Mon 05:05:39 PM 35.0397 -106.7903 282° West 152 175 8,500 677 Climbing Albuquerque Center
Mon 05:06:13 PM 35.0453 -106.8139 286° West 146 168 8,700 700 Climbing Albuquerque Center
Mon 05:06:39 PM 35.0489 -106.8425 279° West 147 169 9,200 590 Climbing Albuquerque Center
Mon 05:07:14 PM 35.0500 -106.8644 274° West 147 169 9,300 590 Climbing Albuquerque Center
Mon 05:07:40 PM 35.0528 -106.8906 277° West 143 165 9,800 581 Climbing Albuquerque Center
Mon 05:08:00 PM 35.0974 -106.8633 285° West  Level Estimated
Mon 05:08:16 PM 35.0572 -106.9161 282° West 147 169 9,900  Level Albuquerque Center
Mon 05:08:34 PM 35.0606 -106.9353 282° West 141 162 10,200 677 Climbing Albuquerque Center
Mon 05:09:18 PM 35.0656 -106.9628 283° West 144 166 10,600 689 Climbing Albuquerque Center
Mon 05:09:35 PM 35.0683 -106.9800 281° West 138 159 10,900 590 Climbing Albuquerque Center
Mon 05:10:19 PM 35.0736 -107.0086 289° West 139 160 11,200 295 Climbing Albuquerque Center
Mon 05:10:36 PM 35.0764 -107.0272 280° West 140 161 11,200 390 Level Albuquerque Center
Mon 05:11:00 PM 35.0834 -107.0394 289° West  Level Estimated
Mon 05:11:36 PM 35.0822 -107.0750 278° West 144 166 11,700  Level Albuquerque Center
Mon 05:12:23 PM 35.0864 -107.1033 280° West 140 161 12,400 556 Climbing Albuquerque Center
Mon 05:13:24 PM 35.0911 -107.1661 275° West 151 174 12,700 98 Climbing Albuquerque Center
Mon 05:14:26 PM 35.0919 -107.2250 271° West 169 194 12,600 -98 Descending Albuquerque Center
Mon 05:15:27 PM 35.0944 -107.2783 273° West 161 185 12,500 49 Descending Albuquerque Center
Mon 05:16:29 PM 35.1019 -107.3317 280° West 160 184 12,700 48 Climbing Albuquerque Center
Mon 05:17:31 PM 35.1097 -107.3869 280° West 164 189 12,600  Descending Albuquerque Center
Mon 05:18:33 PM 35.1258 -107.4408 290° West 168 193 12,700 -49 Climbing Albuquerque Center
Mon 05:19:34 PM 35.1431 -107.4933 292° West 167 192 12,500  Descending Albuquerque Center
Mon 05:20:36 PM 35.1581 -107.5497 288° West 166 191 12,700 48 Climbing Albuquerque Center
Mon 05:21:38 PM 35.1725 -107.6133 286° West 172 198 12,600 49 Descending Albuquerque Center
Mon 05:22:39 PM 35.1867 -107.6642 289° West 166 191 12,800  Climbing Albuquerque Center
Mon 05:23:41 PM 35.2017 -107.7253 287° West 168 193 12,600 -49 Descending Albuquerque Center
Mon 05:24:42 PM 35.2189 -107.7775 292° West 171 197 12,700  Climbing Albuquerque Center
Mon 05:25:44 PM 35.2458 -107.8358 300° West 175 201 12,600 -145 Descending Albuquerque Center
Mon 05:26:46 PM 35.2672 -107.8861 298° West 175 201 12,400 -195 Descending Albuquerque Center
Mon 05:27:47 PM 35.2861 -107.9381 294° West 174 200 12,200 -146 Descending Albuquerque Center
Mon 05:28:49 PM 35.3086 -107.9992 294° West 175 201 12,100 -195 Descending Albuquerque Center
Mon 05:29:50 PM 35.3289 -108.0533 295° West 178 205 11,800 -537 Descending Albuquerque Center
Mon 05:30:52 PM 35.3553 -108.1150 298° West 182 209 11,000 -532 Descending Albuquerque Center
Mon 05:31:54 PM 35.3772 -108.1636 299° West 177 204 10,700 -390 Descending Albuquerque Center
Mon 05:32:55 PM 35.4031 -108.2217 299° West 174 200 10,200 -439 Descending Albuquerque Center
Mon 05:33:57 PM 35.4242 -108.2689 299° West 170 196 9,800 -387 Descending Albuquerque Center
Mon 05:34:59 PM 35.4461 -108.3158 300° West 167 192 9,400 -97 Descending Albuquerque Center
Mon 05:36:01 PM 35.4708 -108.3742 298° West 169 194 9,600 194 Climbing Albuquerque Center

Login

Don't have an account? Register now (free) for customized features, flight alerts, and more!